Welcome to Northern Hawkes Bay. New Zealand.
PWS Header
      nz Flag



Hit Counter


W3C Valid W3C Valid logo


    Wairoa

Select any of the Stations below to visit their websites.










Historic Data from Weather Underground
Select the location of interest below. Wairoa is the default. Please have patience, this Data is slow to load in.
Northern Hawkes Bay Historical Data
Daily Summary for March 5, 2017 Units:  Metric    English   Both
« Previous Day
Next Day »
Daily Weekly Monthly Yearly Custom
  High: Low: Average:
Temperature: 30.2 °C 12.9 °C 20 °C
Dew Point: 19.6 °C 12.4 °C 15.8 °C
Humidity: 99% 39% 80%
Wind Speed: 14.8km/h 0.0km/h 3.3km/h
Wind Gust: 19.5km/h - -
Wind- - West
Pressure: 1015.1 hPa 1010.0 hPa -
Precipitation: 0.0 mm    
Historical Graphs
 
 
Tabular Data for March 5, 2017
Time Temperature Dew Point Pressure Wind Wind Speed Wind Gust Humidity Rainfall Rate (Hourly) solar
00:01 17.3 °C 14.6 °C 1015.1 hPa Calm   1.1 km/h 84% 0.0 mm 0 W/m2
00:06 17.3 °C 14.8 °C 1015.1 hPa Calm   3.5 km/h 85% 0.0 mm 0 W/m2
00:11 17.2 °C 14.8 °C 1014.8 hPa Calm   3.5 km/h 86% 0.0 mm 0 W/m2
00:16 17.0 °C 14.7 °C 1015.1 hPa Calm   3.5 km/h 86% 0.0 mm 0 W/m2
00:21 16.9 °C 14.7 °C 1014.8 hPa WNW 2.6 km/h 6.1 km/h 87% 0.0 mm 0 W/m2
00:26 16.9 °C 14.9 °C 1014.8 hPa NW 1.1 km/h 6.1 km/h 88% 0.0 mm 0 W/m2
00:31 16.7 °C 14.7 °C 1014.8 hPa NNW 2.6 km/h 6.1 km/h 88% 0.0 mm 0 W/m2
00:36 16.6 °C 14.6 °C 1014.8 hPa Calm   6.1 km/h 88% 0.0 mm 0 W/m2
00:41 16.5 °C 14.5 °C 1015.1 hPa Calm   5.0 km/h 88% 0.0 mm 0 W/m2
00:46 16.4 °C 14.4 °C 1014.8 hPa NW 2.6 km/h 3.5 km/h 88% 0.0 mm 0 W/m2
00:51 16.4 °C 14.8 °C 1014.8 hPa NNW 1.1 km/h 5.0 km/h 90% 0.0 mm 0 W/m2
00:56 16.3 °C 14.7 °C 1014.8 hPa NNW 3.5 km/h 6.1 km/h 90% 0.0 mm 0 W/m2
01:01 16.3 °C 14.8 °C 1014.8 hPa North 1.1 km/h 6.1 km/h 91% 0.0 mm 0 W/m2
01:06 16.2 °C 14.9 °C 1014.8 hPa NNW 2.6 km/h 6.1 km/h 92% 0.0 mm 0 W/m2
01:11 16.1 °C 14.8 °C 1014.8 hPa Calm   5.0 km/h 92% 0.0 mm 0 W/m2
01:16 16.1 °C 14.8 °C 1014.8 hPa NW 2.6 km/h 6.1 km/h 92% 0.0 mm 0 W/m2
01:21 15.9 °C 14.8 °C 1014.8 hPa NW 2.6 km/h 6.1 km/h 93% 0.0 mm 0 W/m2
01:26 15.9 °C 14.8 °C 1014.8 hPa Calm   6.1 km/h 93% 0.0 mm 0 W/m2
01:31 15.8 °C 14.8 °C 1014.8 hPa NNW 3.5 km/h 6.1 km/h 94% 0.0 mm 0 W/m2
01:51 15.7 °C 14.7 °C 1014.8 hPa NNW 1.1 km/h 6.1 km/h 94% 0.0 mm 0 W/m2
01:56 15.7 °C 14.7 °C 1014.8 hPa North 3.5 km/h 6.1 km/h 94% 0.0 mm 0 W/m2
02:15 15.4 °C 14.6 °C 1014.8 hPa North 2.6 km/h 5.0 km/h 95% 0.0 mm 0 W/m2
02:20 15.3 °C 14.5 °C 1014.4 hPa North 1.1 km/h 5.0 km/h 95% 0.0 mm 0 W/m2
02:25 15.2 °C 14.4 °C 1014.4 hPa North 2.6 km/h 5.0 km/h 95% 0.0 mm 0 W/m2
02:30 15.1 °C 14.3 °C 1014.4 hPa NNW 5.0 km/h 7.2 km/h 95% 0.0 mm 0 W/m2
02:35 15.1 °C 14.3 °C 1014.4 hPa NNW 2.6 km/h 7.2 km/h 95% 0.0 mm 0 W/m2
02:40 15.1 °C 14.3 °C 1014.4 hPa NNW 2.6 km/h 7.2 km/h 95% 0.0 mm 0 W/m2
02:45 15.0 °C 14.2 °C 1014.4 hPa NNW 3.5 km/h 7.2 km/h 95% 0.0 mm 0 W/m2
02:50 15.0 °C 14.2 °C 1014.4 hPa NW 2.6 km/h 7.2 km/h 95% 0.0 mm 0 W/m2
02:55 14.9 °C 14.4 °C 1014.4 hPa NW 2.6 km/h 7.2 km/h 97% 0.0 mm 0 W/m2
03:00 14.8 °C 14.3 °C 1014.4 hPa NNW 3.5 km/h 7.2 km/h 97% 0.0 mm 0 W/m2
03:05 14.7 °C 14.2 °C 1014.4 hPa NNW 2.6 km/h 8.7 km/h 97% 0.0 mm 0 W/m2
03:10 14.7 °C 14.2 °C 1014.4 hPa NNW 3.5 km/h 8.7 km/h 97% 0.0 mm 0 W/m2
03:15 14.7 °C 14.2 °C 1014.4 hPa NNW 2.6 km/h 7.2 km/h 97% 0.0 mm 0 W/m2
03:20 14.6 °C 14.3 °C 1014.4 hPa NW 2.6 km/h 6.1 km/h 98% 0.0 mm 0 W/m2
03:25 14.6 °C 14.3 °C 1014.4 hPa NW 2.6 km/h 6.1 km/h 98% 0.0 mm 0 W/m2
03:30 14.5 °C 14.2 °C 1014.4 hPa NNW 2.6 km/h 5.0 km/h 98% 0.0 mm 0 W/m2
03:35 14.4 °C 14.1 °C 1014.4 hPa NNW 1.1 km/h 5.0 km/h 98% 0.0 mm 0 W/m2
03:40 14.4 °C 14.1 °C 1014.4 hPa NNW 2.6 km/h 5.0 km/h 98% 0.0 mm 0 W/m2
03:45 14.3 °C 14.0 °C 1014.4 hPa NNW 3.5 km/h 5.0 km/h 98% 0.0 mm 0 W/m2
03:50 14.3 °C 14.0 °C 1014.4 hPa NNW 2.6 km/h 6.1 km/h 98% 0.0 mm 0 W/m2
03:55 14.3 °C 14.2 °C 1014.4 hPa NNW 3.5 km/h 7.2 km/h 99% 0.0 mm 0 W/m2
04:00 14.3 °C 14.2 °C 1014.4 hPa NW 3.5 km/h 8.7 km/h 99% 0.0 mm 0 W/m2
04:05 14.3 °C 14.2 °C 1014.4 hPa NW 6.1 km/h 8.7 km/h 99% 0.0 mm 0 W/m2
04:10 14.2 °C 14.1 °C 1014.4 hPa NW 3.5 km/h 8.7 km/h 99% 0.0 mm 0 W/m2
04:15 14.2 °C 14.1 °C 1014.4 hPa NW 3.5 km/h 8.7 km/h 99% 0.0 mm 0 W/m2
04:20 14.0 °C 13.8 °C 1014.4 hPa NW 3.5 km/h 8.7 km/h 99% 0.0 mm 0 W/m2
04:25 14.0 °C 13.8 °C 1014.8 hPa NW 5.0 km/h 8.7 km/h 99% 0.0 mm 0 W/m2
04:30 14.0 °C 13.8 °C 1014.8 hPa NNW 6.1 km/h 8.7 km/h 99% 0.0 mm 0 W/m2
04:35 14.0 °C 13.8 °C 1014.8 hPa NNW 3.5 km/h 8.7 km/h 99% 0.0 mm 0 W/m2
04:40 13.9 °C 13.8 °C 1014.4 hPa NNW 3.5 km/h 8.7 km/h 99% 0.0 mm 0 W/m2
04:45 13.8 °C 13.7 °C 1014.8 hPa NW 3.5 km/h 6.1 km/h 99% 0.0 mm 0 W/m2
04:50 13.8 °C 13.7 °C 1014.4 hPa NW 2.6 km/h 8.7 km/h 99% 0.0 mm 0 W/m2
04:55 13.7 °C 13.6 °C 1014.4 hPa NW 3.5 km/h 8.7 km/h 99% 0.0 mm 0 W/m2
05:00 13.7 °C 13.6 °C 1014.4 hPa NW 2.6 km/h 6.1 km/h 99% 0.0 mm 0 W/m2
05:05 13.6 °C 13.4 °C 1014.4 hPa NNW 2.6 km/h 6.1 km/h 99% 0.0 mm 0 W/m2
05:10 13.6 °C 13.4 °C 1014.4 hPa Calm   6.1 km/h 99% 0.0 mm 0 W/m2
05:15 13.5 °C 13.3 °C 1014.4 hPa NNW 2.6 km/h 7.2 km/h 99% 0.0 mm 0 W/m2
05:20 13.5 °C 13.3 °C 1014.4 hPa NNW 2.6 km/h 7.2 km/h 99% 0.0 mm 0 W/m2
05:25 13.5 °C 13.3 °C 1014.4 hPa NNW 3.5 km/h 6.1 km/h 99% 0.0 mm 0 W/m2
05:30 13.4 °C 13.3 °C 1014.4 hPa NW 2.6 km/h 6.1 km/h 99% 0.0 mm 0 W/m2
05:35 13.4 °C 13.3 °C 1014.1 hPa NW 2.6 km/h 6.1 km/h 99% 0.0 mm 0 W/m2
05:40 13.3 °C 13.2 °C 1014.4 hPa NW 2.6 km/h 6.1 km/h 99% 0.0 mm 0 W/m2
05:45 13.3 °C 13.2 °C 1014.4 hPa WNW 1.1 km/h 6.1 km/h 99% 0.0 mm 0 W/m2
05:50 13.3 °C 13.2 °C 1014.4 hPa NW 5.0 km/h 8.7 km/h 99% 0.0 mm 0 W/m2
05:55 13.2 °C 13.1 °C 1014.4 hPa NNW 5.0 km/h 8.7 km/h 99% 0.0 mm 0 W/m2
06:00 13.2 °C 13.1 °C 1014.4 hPa NNW 3.5 km/h 7.2 km/h 99% 0.0 mm 0 W/m2
06:05 13.2 °C 13.1 °C 1014.4 hPa NNW 6.1 km/h 8.7 km/h 99% 0.0 mm 0 W/m2
06:10 13.2 °C 13.1 °C 1014.1 hPa NNW 3.5 km/h 8.7 km/h 99% 0.0 mm 0 W/m2
06:15 13.2 °C 13.1 °C 1014.1 hPa NW 2.6 km/h 8.7 km/h 99% 0.0 mm 0 W/m2
06:20 13.1 °C 12.9 °C 1014.1 hPa NNW 1.1 km/h 8.7 km/h 99% 0.0 mm 0 W/m2
06:25 13.1 °C 12.9 °C 1014.4 hPa NNW 2.6 km/h 8.7 km/h 99% 0.0 mm 0 W/m2
06:30 13.1 °C 12.9 °C 1014.1 hPa NNW 3.5 km/h 8.7 km/h 99% 0.0 mm 0 W/m2
06:35 13.1 °C 12.9 °C 1014.4 hPa NNW 3.5 km/h 8.7 km/h 99% 0.0 mm 0 W/m2
06:40 13.1 °C 12.9 °C 1014.1 hPa NNW 3.5 km/h 7.2 km/h 99% 0.0 mm 0 W/m2
06:57 13.0 °C 12.8 °C 1014.4 hPa NW 5.0 km/h 8.7 km/h 99% 0.0 mm 3 W/m2
07:02 13.0 °C 12.8 °C 1014.1 hPa NNW 3.5 km/h 8.7 km/h 99% 0.0 mm 5 W/m2
07:07 13.0 °C 12.8 °C 1014.4 hPa NNW 5.0 km/h 8.7 km/h 99% 0.0 mm 9 W/m2
07:12 13.0 °C 12.8 °C 1014.4 hPa NW 5.0 km/h 8.7 km/h 99% 0.0 mm 12 W/m2
07:17 12.9 °C 12.4 °C 1014.4 hPa NNW 2.6 km/h 7.2 km/h 97% 0.0 mm 17 W/m2
07:22 12.9 °C 12.4 °C 1014.1 hPa NNW 3.5 km/h 7.2 km/h 97% 0.0 mm 45 W/m2
07:27 13.2 °C 13.1 °C 1014.1 hPa NNW 3.5 km/h 7.2 km/h 99% 0.0 mm 63 W/m2
07:32 13.4 °C 13.3 °C 1014.4 hPa NNW 6.1 km/h 9.7 km/h 99% 0.0 mm 79 W/m2
07:37 13.6 °C 13.4 °C 1014.1 hPa NNW 6.1 km/h 9.7 km/h 99% 0.0 mm 93 W/m2
07:42 13.9 °C 13.8 °C 1014.1 hPa NNW 7.2 km/h 9.7 km/h 99% 0.0 mm 106 W/m2
07:47 14.1 °C 13.9 °C 1014.4 hPa NW 6.1 km/h 12.2 km/h 99% 0.0 mm 119 W/m2
07:52 14.3 °C 14.0 °C 1014.4 hPa NW 6.1 km/h 12.2 km/h 98% 0.0 mm 130 W/m2
07:57 14.7 °C 14.2 °C 1014.1 hPa NNW 7.2 km/h 11.1 km/h 97% 0.0 mm 145 W/m2
08:02 14.9 °C 14.3 °C 1014.4 hPa NNW 6.1 km/h 11.1 km/h 96% 0.0 mm 159 W/m2
08:07 15.1 °C 14.0 °C 1014.4 hPa NNW 3.5 km/h 11.1 km/h 93% 0.0 mm 176 W/m2
08:12 15.4 °C 13.9 °C 1014.4 hPa NNW 5.0 km/h 13.4 km/h 91% 0.0 mm 189 W/m2
08:17 15.7 °C 14.1 °C 1014.4 hPa NNW 6.1 km/h 13.4 km/h 90% 0.0 mm 204 W/m2
08:22 15.8 °C 13.8 °C 1014.1 hPa NNW 6.1 km/h 12.2 km/h 88% 0.0 mm 212 W/m2
08:27 16.2 °C 13.9 °C 1014.1 hPa NW 3.5 km/h 12.2 km/h 86% 0.0 mm 212 W/m2
08:32 16.3 °C 13.8 °C 1014.1 hPa NW 3.5 km/h 12.2 km/h 85% 0.0 mm 218 W/m2
08:37 16.5 °C 14.0 °C 1014.1 hPa NW 7.2 km/h 12.2 km/h 85% 0.0 mm 221 W/m2
08:42 16.7 °C 14.0 °C 1014.1 hPa NW 8.7 km/h 11.1 km/h 84% 0.0 mm 228 W/m2
08:47 16.7 °C 13.8 °C 1014.1 hPa NW 6.1 km/h 13.4 km/h 83% 0.0 mm 237 W/m2
08:52 17.0 °C 13.9 °C 1014.1 hPa NNW 6.1 km/h 13.4 km/h 82% 0.0 mm 247 W/m2
08:57 17.3 °C 14.2 °C 1014.4 hPa NNW 5.0 km/h 12.2 km/h 82% 0.0 mm 256 W/m2
09:02 17.8 °C 14.7 °C 1014.1 hPa NW 7.2 km/h 12.2 km/h 82% 0.0 mm 268 W/m2
09:07 18.1 °C 14.6 °C 1014.4 hPa NNW 7.2 km/h 9.7 km/h 80% 0.0 mm 277 W/m2
09:12 18.5 °C 15.2 °C 1014.4 hPa NNW 6.1 km/h 9.7 km/h 81% 0.0 mm 287 W/m2
09:17 18.3 °C 14.6 °C 1014.1 hPa NW 6.1 km/h 12.2 km/h 79% 0.0 mm 294 W/m2
09:22 18.5 °C 14.8 °C 1014.1 hPa NW 6.1 km/h 12.2 km/h 79% 0.0 mm 304 W/m2
09:27 18.9 °C 15.2 °C 1014.1 hPa NNW 5.0 km/h 11.1 km/h 79% 0.0 mm 315 W/m2
09:32 19.2 °C 15.1 °C 1014.1 hPa NNW 7.2 km/h 11.1 km/h 77% 0.0 mm 331 W/m2
09:37 19.2 °C 14.7 °C 1013.8 hPa North 2.6 km/h 12.2 km/h 75% 0.0 mm 345 W/m2
09:42 20.0 °C 15.7 °C 1013.8 hPa North 2.6 km/h 12.2 km/h 76% 0.0 mm 359 W/m2
09:47 20.5 °C 15.7 °C 1013.8 hPa North 2.6 km/h 9.7 km/h 74% 0.0 mm 374 W/m2
09:52 21.4 °C 16.2 °C 1013.8 hPa NNW 5.0 km/h 9.7 km/h 72% 0.0 mm 389 W/m2
09:57 21.7 °C 15.8 °C 1013.4 hPa North 3.5 km/h 9.7 km/h 69% 0.0 mm 402 W/m2
10:02 21.9 °C 15.9 °C 1013.8 hPa NNW 3.5 km/h 9.7 km/h 69% 0.0 mm 414 W/m2
10:07 21.9 °C 16.2 °C 1013.8 hPa NW 2.6 km/h 8.7 km/h 70% 0.0 mm 426 W/m2
10:12 22.2 °C 16.1 °C 1013.8 hPa NW 3.5 km/h 13.4 km/h 68% 0.0 mm 436 W/m2
10:17 22.2 °C 16.1 °C 1013.8 hPa Calm   13.4 km/h 68% 0.0 mm 451 W/m2
10:22 23.2 °C 17.0 °C 1014.1 hPa NW 3.5 km/h 8.7 km/h 68% 0.0 mm 435 W/m2
10:27 23.5 °C 16.8 °C 1013.8 hPa Calm   7.2 km/h 66% 0.0 mm 479 W/m2
10:30 23.8 °C 17.1 °C 1013.8 hPa West 1.1 km/h 7.2 km/h 66% 0.0 mm 492 W/m2
10:35 23.8 °C 15.8 °C 1013.8 hPa NNW 2.6 km/h 11.1 km/h 61% 0.0 mm 81 W/m2
10:40 23.1 °C 15.7 °C 1014.1 hPa NNW 6.1 km/h 11.1 km/h 63% 0.0 mm 100 W/m2
10:45 23.6 °C 15.7 °C 1013.8 hPa North 1.1 km/h 8.7 km/h 61% 0.0 mm 73 W/m2
10:50 23.8 °C 15.6 °C 1014.1 hPa North 1.1 km/h 8.7 km/h 60% 0.0 mm 524 W/m2
10:55 23.4 °C 15.7 °C 1013.8 hPa NNW 7.2 km/h 11.1 km/h 62% 0.0 mm 88 W/m2
11:00 23.2 °C 15.3 °C 1013.4 hPa NNW 5.0 km/h 11.1 km/h 61% 0.0 mm 547 W/m2
11:05 23.8 °C 15.1 °C 1013.8 hPa North 3.5 km/h 9.7 km/h 58% 0.0 mm 568 W/m2
11:10 24.2 °C 15.2 °C 1013.8 hPa NNE 3.5 km/h 9.7 km/h 57% 0.0 mm 168 W/m2
11:15 23.8 °C 14.5 °C 1013.4 hPa Calm   9.7 km/h 56% 0.0 mm 595 W/m2
11:20 24.1 °C 14.8 °C 1013.4 hPa North 7.2 km/h 11.1 km/h 56% 0.0 mm 613 W/m2
11:25 24.2 °C 14.9 °C 1013.1 hPa NNW 5.0 km/h 12.2 km/h 56% 0.0 mm 633 W/m2
11:30 23.6 °C 14.9 °C 1013.1 hPa North 9.7 km/h 15.8 km/h 58% 0.0 mm 640 W/m2
11:35 23.9 °C 14.9 °C 1013.1 hPa NNE 6.1 km/h 15.8 km/h 57% 0.0 mm 652 W/m2
11:40 23.8 °C 14.8 °C 1013.1 hPa NNE 6.1 km/h 15.8 km/h 57% 0.0 mm 674 W/m2
11:45 23.9 °C 14.9 °C 1012.8 hPa NNW 8.7 km/h 13.4 km/h 57% 0.0 mm 695 W/m2
11:50 24.0 °C 14.7 °C 1013.1 hPa NNW 2.6 km/h 13.4 km/h 56% 0.0 mm 709 W/m2
11:55 24.6 °C 15.0 °C 1012.8 hPa North 7.2 km/h 13.4 km/h 55% 0.0 mm 720 W/m2
12:00 25.0 °C 14.5 °C 1012.8 hPa NNE 11.1 km/h 12.2 km/h 52% 0.0 mm 408 W/m2
12:05 25.0 °C 14.5 °C 1012.8 hPa NE 3.5 km/h 15.8 km/h 52% 0.0 mm 590 W/m2
12:10 25.0 °C 14.2 °C 1012.4 hPa NE 6.1 km/h 15.8 km/h 51% 0.0 mm 754 W/m2
12:15 25.1 °C 14.3 °C 1012.4 hPa North 6.1 km/h 14.8 km/h 51% 0.0 mm 770 W/m2
12:20 25.7 °C 14.5 °C 1012.4 hPa NNE 5.0 km/h 12.2 km/h 50% 0.0 mm 791 W/m2
12:23 25.8 °C 14.0 °C 1012.4 hPa NNE 5.0 km/h 12.2 km/h 48% 0.0 mm 791 W/m2
12:28 26.1 °C 14.3 °C 1012.1 hPa NNE 5.0 km/h 11.1 km/h 48% 0.0 mm 808 W/m2
12:33 26.6 °C 15.9 °C 1012.1 hPa ENE 7.2 km/h 9.7 km/h 52% 0.0 mm 822 W/m2
12:38 26.6 °C 15.3 °C 1012.1 hPa ESE 6.1 km/h 11.1 km/h 50% 0.0 mm 833 W/m2
12:43 26.3 °C 16.6 °C 1011.7 hPa Calm   12.2 km/h 55% 0.0 mm 357 W/m2
12:48 26.3 °C 17.1 °C 1012.1 hPa SE 3.5 km/h 12.2 km/h 57% 0.0 mm 853 W/m2
12:49 26.2 °C 17.3 °C 1012.1 hPa SE 5.0 km/h 11.1 km/h 58% 0.0 mm 856 W/m2
12:54 25.6 °C 15.9 °C 1011.7 hPa SE 3.5 km/h 12.2 km/h 55% 0.0 mm 867 W/m2
12:59 25.1 °C 17.1 °C 1011.7 hPa SSE 7.2 km/h 13.4 km/h 61% 0.0 mm 873 W/m2
13:04 25.1 °C 17.6 °C 1011.7 hPa SSE 5.0 km/h 13.4 km/h 63% 0.0 mm 883 W/m2
13:09 25.6 °C 18.1 °C 1011.7 hPa SSE 8.7 km/h 12.2 km/h 63% 0.0 mm 896 W/m2
13:15 25.8 °C 17.7 °C 1011.4 hPa SE 5.0 km/h 9.7 km/h 61% 0.0 mm 905 W/m2
13:20 25.5 °C 18.2 °C 1011.4 hPa SE 7.2 km/h 15.8 km/h 64% 0.0 mm 903 W/m2
13:25 25.0 °C 18.0 °C 1011.4 hPa SSE 5.0 km/h 17.2 km/h 65% 0.0 mm 901 W/m2
13:30 24.9 °C 18.4 °C 1011.4 hPa SSE 9.7 km/h 17.2 km/h 67% 0.0 mm 904 W/m2
13:35 25.0 °C 18.2 °C 1011.4 hPa SSE 7.2 km/h 15.8 km/h 66% 0.0 mm 900 W/m2
13:40 25.1 °C 18.3 °C 1011.4 hPa SSE 12.2 km/h 15.8 km/h 66% 0.0 mm 900 W/m2
13:41 25.0 °C 18.2 °C 1011.4 hPa SSE 8.7 km/h 15.8 km/h 66% 0.0 mm 898 W/m2
13:46 24.9 °C 18.4 °C 1011.4 hPa SSE 9.7 km/h 15.8 km/h 67% 0.0 mm 892 W/m2
13:51 25.0 °C 18.2 °C 1011.4 hPa SSE 5.0 km/h 14.8 km/h 66% 0.0 mm 890 W/m2
13:56 25.9 °C 18.8 °C 1011.4 hPa SSE 5.0 km/h 14.8 km/h 65% 0.0 mm 895 W/m2
14:01 26.7 °C 18.3 °C 1011.4 hPa SSE 7.2 km/h 11.1 km/h 60% 0.0 mm 893 W/m2
14:06 26.4 °C 18.1 °C 1011.1 hPa South 8.7 km/h 12.2 km/h 60% 0.0 mm 857 W/m2
14:11 25.9 °C 18.3 °C 1011.1 hPa South 6.1 km/h 13.4 km/h 63% 0.0 mm 878 W/m2
14:16 25.9 °C 18.3 °C 1011.1 hPa Calm   13.4 km/h 63% 0.0 mm 860 W/m2
14:21 26.4 °C 18.1 °C 1010.7 hPa SSE 3.5 km/h 13.4 km/h 60% 0.0 mm 845 W/m2
14:26 26.7 °C 18.1 °C 1011.1 hPa SSE 6.1 km/h 11.1 km/h 59% 0.0 mm 847 W/m2
14:31 25.9 °C 18.3 °C 1011.1 hPa South 2.6 km/h 15.8 km/h 63% 0.0 mm 815 W/m2
14:36 26.5 °C 18.7 °C 1010.7 hPa South 7.2 km/h 15.8 km/h 62% 0.0 mm 827 W/m2
14:41 26.7 °C 18.6 °C 1010.7 hPa SSE 2.6 km/h 12.2 km/h 61% 0.0 mm 816 W/m2
14:46 27.6 °C 18.3 °C 1010.7 hPa SSE 1.1 km/h 11.1 km/h 57% 0.0 mm 700 W/m2
14:51 27.6 °C 18.1 °C 1010.7 hPa Calm   13.4 km/h 56% 0.0 mm 120 W/m2
14:56 27.2 °C 17.4 °C 1010.7 hPa Calm   13.4 km/h 55% 0.0 mm 741 W/m2
15:01 26.9 °C 17.1 °C 1010.7 hPa South 1.1 km/h 11.1 km/h 55% 0.0 mm 691 W/m2
15:06 26.6 °C 17.1 °C 1010.7 hPa SSE 5.0 km/h 11.1 km/h 56% 0.0 mm 663 W/m2
15:10 26.5 °C 17.3 °C 1010.7 hPa South 3.5 km/h 11.1 km/h 57% 0.0 mm 723 W/m2
15:15 26.7 °C 17.2 °C 1010.7 hPa SSE 6.1 km/h 19.5 km/h 56% 0.0 mm 739 W/m2
15:20 26.8 °C 16.7 °C 1010.7 hPa Calm   19.5 km/h 54% 0.0 mm 519 W/m2
15:25 27.2 °C 16.2 °C 1010.4 hPa Calm   9.7 km/h 51% 0.0 mm 424 W/m2
15:30 26.7 °C 16.3 °C 1010.7 hPa Calm   2.6 km/h 53% 0.0 mm 305 W/m2
15:35 26.4 °C 16.7 °C 1010.4 hPa Calm   2.6 km/h 55% 0.0 mm 364 W/m2
15:40 26.7 °C 16.1 °C 1010.4 hPa Calm   3.5 km/h 52% 0.0 mm 494 W/m2
15:45 26.7 °C 16.1 °C 1010.4 hPa Calm   3.5 km/h 52% 0.0 mm 374 W/m2
15:50 26.5 °C 16.2 °C 1010.4 hPa Calm   1.1 km/h 53% 0.0 mm 298 W/m2
15:55 26.8 °C 16.4 °C 1010.0 hPa Calm   1.1 km/h 53% 0.0 mm 456 W/m2
16:00 27.9 °C 16.6 °C 1010.0 hPa Calm   1.1 km/h 50% 0.0 mm 480 W/m2
16:05 28.5 °C 16.4 °C 1010.0 hPa Calm     48% 0.0 mm 447 W/m2
16:10 28.9 °C 16.5 °C 1010.0 hPa Calm     47% 0.0 mm 486 W/m2
16:15 28.8 °C 16.1 °C 1010.0 hPa Calm   2.6 km/h 46% 0.0 mm 511 W/m2
16:20 28.9 °C 15.1 °C 1010.0 hPa Calm   6.1 km/h 43% 0.0 mm 169 W/m2
16:25 29.0 °C 14.1 °C 1010.0 hPa Calm   6.1 km/h 40% 0.0 mm 211 W/m2
16:30 29.3 °C 15.1 °C 1010.0 hPa Calm   6.1 km/h 42% 0.0 mm 463 W/m2
16:35 29.6 °C 15.0 °C 1010.0 hPa Calm   1.1 km/h 41% 0.0 mm 523 W/m2
16:40 30.2 °C 15.1 °C 1010.0 hPa Calm   1.1 km/h 40% 0.0 mm 446 W/m2
16:45 30.0 °C 14.6 °C 1010.0 hPa Calm     39% 0.0 mm 412 W/m2
16:50 29.8 °C 14.4 °C 1010.0 hPa Calm     39% 0.0 mm 287 W/m2
16:55 29.5 °C 14.1 °C 1010.0 hPa Calm     39% 0.0 mm 305 W/m2
17:00 28.8 °C 13.9 °C 1010.0 hPa Calm     40% 0.0 mm 209 W/m2
17:05 28.5 °C 14.0 °C 1010.0 hPa Calm     41% 0.0 mm 226 W/m2
17:10 28.1 °C 14.4 °C 1010.0 hPa Calm     43% 0.0 mm 311 W/m2
17:15 28.5 °C 14.7 °C 1010.0 hPa Calm     43% 0.0 mm 357 W/m2
17:20 29.3 °C 14.3 °C 1010.0 hPa Calm     40% 0.0 mm 381 W/m2
17:25 29.6 °C 14.2 °C 1010.0 hPa Calm     39% 0.0 mm 357 W/m2
17:30 29.3 °C 14.3 °C 1010.0 hPa Calm     40% 0.0 mm 341 W/m2
17:35 29.0 °C 16.9 °C 1010.4 hPa South 5.0 km/h 11.1 km/h 48% 0.0 mm 294 W/m2
17:40 26.9 °C 18.2 °C 1010.7 hPa SSW 8.7 km/h 15.8 km/h 59% 0.0 mm 269 W/m2
17:45 26.1 °C 18.3 °C 1010.7 hPa SSW 7.2 km/h 15.8 km/h 62% 0.0 mm 240 W/m2
17:50 25.5 °C 19.2 °C 1010.7 hPa SSW 14.8 km/h 19.5 km/h 68% 0.0 mm 176 W/m2
17:55 24.4 °C 19.5 °C 1010.7 hPa SSW 11.1 km/h 19.5 km/h 74% 0.0 mm 103 W/m2
18:00 23.2 °C 19.2 °C 1010.7 hPa SSW 8.7 km/h 19.5 km/h 78% 0.0 mm 134 W/m2
18:05 22.9 °C 19.3 °C 1010.7 hPa SSW 2.6 km/h 17.2 km/h 80% 0.0 mm 89 W/m2
18:10 22.7 °C 19.3 °C 1010.7 hPa SSW 8.7 km/h 13.4 km/h 81% 0.0 mm 96 W/m2
18:15 22.5 °C 19.3 °C 1011.1 hPa SW 8.7 km/h 14.8 km/h 82% 0.0 mm 95 W/m2
18:20 22.4 °C 19.4 °C 1011.1 hPa SW 6.1 km/h 14.8 km/h 83% 0.0 mm 100 W/m2
18:25 22.6 °C 19.6 °C 1011.1 hPa SSW 9.7 km/h 14.8 km/h 83% 0.0 mm 108 W/m2
18:30 22.6 °C 19.4 °C 1011.4 hPa South 5.0 km/h 14.8 km/h 82% 0.0 mm 106 W/m2
18:35 22.8 °C 19.4 °C 1011.4 hPa SSW 7.2 km/h 13.4 km/h 81% 0.0 mm 125 W/m2
18:40 22.6 °C 19.0 °C 1011.4 hPa SSW 12.2 km/h 17.2 km/h 80% 0.0 mm 113 W/m2
18:45 22.5 °C 19.1 °C 1011.4 hPa South 7.2 km/h 17.2 km/h 81% 0.0 mm 95 W/m2
18:50 22.2 °C 18.8 °C 1011.4 hPa South 9.7 km/h 17.2 km/h 81% 0.0 mm 82 W/m2
18:55 22.0 °C 19.0 °C 1011.7 hPa South 6.1 km/h 14.8 km/h 83% 0.0 mm 72 W/m2
19:00 22.1 °C 18.9 °C 1011.7 hPa SSW 11.1 km/h 13.4 km/h 82% 0.0 mm 65 W/m2
19:05 21.9 °C 18.9 °C 1011.7 hPa SSW 5.0 km/h 13.4 km/h 83% 0.0 mm 54 W/m2
19:10 21.8 °C 19.0 °C 1011.7 hPa SSW 3.5 km/h 13.4 km/h 84% 0.0 mm 42 W/m2
19:15 22.0 °C 19.2 °C 1011.7 hPa SSW 5.0 km/h 8.7 km/h 84% 0.0 mm 30 W/m2
19:20 21.4 °C 18.8 °C 1011.7 hPa SW 5.0 km/h 8.7 km/h 85% 0.0 mm 23 W/m2
19:25 21.2 °C 18.6 °C 1011.7 hPa SSW 2.6 km/h 8.7 km/h 85% 0.0 mm 19 W/m2
19:30 21.1 °C 18.7 °C 1012.1 hPa SSW 3.5 km/h 7.2 km/h 86% 0.0 mm 15 W/m2
19:35 21.0 °C 18.8 °C 1012.1 hPa SSW 1.1 km/h 7.2 km/h 87% 0.0 mm 13 W/m2
19:40 20.9 °C 18.7 °C 1011.7 hPa SSW 2.6 km/h 7.2 km/h 87% 0.0 mm 7 W/m2
19:45 20.7 °C 18.7 °C 1011.7 hPa Calm   5.0 km/h 88% 0.0 mm 4 W/m2
19:50 20.5 °C 18.4 °C 1012.1 hPa Calm   5.0 km/h 88% 0.0 mm 1 W/m2
19:55 20.1 °C 18.1 °C 1012.1 hPa Calm     88% 0.0 mm 0 W/m2
20:00 20.1 °C 18.2 °C 1012.1 hPa Calm     89% 0.0 mm 0 W/m2
20:05 20.0 °C 18.3 °C 1012.1 hPa Calm     90% 0.0 mm 0 W/m2
20:10 19.9 °C 18.4 °C 1012.4 hPa Calm     91% 0.0 mm 0 W/m2
20:15 19.8 °C 18.3 °C 1012.1 hPa Calm     91% 0.0 mm 0 W/m2
20:20 19.6 °C 18.1 °C 1012.4 hPa Calm   5.0 km/h 91% 0.0 mm 0 W/m2
20:25 19.5 °C 18.2 °C 1012.4 hPa Calm   5.0 km/h 92% 0.0 mm 0 W/m2
20:30 19.4 °C 18.3 °C 1012.1 hPa SW 1.1 km/h 5.0 km/h 93% 0.0 mm 0 W/m2
20:35 19.1 °C 17.9 °C 1012.1 hPa WSW 1.1 km/h 5.0 km/h 93% 0.0 mm 0 W/m2
20:40 19.4 °C 18.4 °C 1012.4 hPa SW 1.1 km/h 5.0 km/h 94% 0.0 mm 0 W/m2
20:45 19.3 °C 18.3 °C 1012.4 hPa Calm   5.0 km/h 94% 0.0 mm 0 W/m2
20:50 19.2 °C 18.2 °C 1012.4 hPa Calm   5.0 km/h 94% 0.0 mm 0 W/m2
20:55 19.1 °C 18.1 °C 1012.4 hPa Calm   2.6 km/h 94% 0.0 mm 0 W/m2
21:00 18.9 °C 18.1 °C 1012.4 hPa Calm   2.6 km/h 95% 0.0 mm 0 W/m2
21:05 18.9 °C 18.1 °C 1012.4 hPa Calm     95% 0.0 mm 0 W/m2
21:10 18.9 °C 18.1 °C 1012.8 hPa Calm     95% 0.0 mm 0 W/m2
21:15 18.7 °C 17.9 °C 1012.4 hPa Calm     95% 0.0 mm 0 W/m2
21:20 18.8 °C 18.0 °C 1012.8 hPa Calm     95% 0.0 mm 0 W/m2
21:25 18.7 °C 17.9 °C 1012.8 hPa Calm     95% 0.0 mm 0 W/m2
21:30 18.6 °C 17.8 °C 1012.8 hPa NW 1.1 km/h 2.6 km/h 95% 0.0 mm 0 W/m2
21:35 18.4 °C 17.6 °C 1012.8 hPa Calm   2.6 km/h 95% 0.0 mm 0 W/m2
21:40 18.5 °C 17.9 °C 1012.8 hPa Calm   2.6 km/h 96% 0.0 mm 0 W/m2
21:45 18.3 °C 17.7 °C 1013.1 hPa Calm     96% 0.0 mm 0 W/m2
21:50 18.2 °C 17.6 °C 1013.1 hPa Calm     96% 0.0 mm 0 W/m2
21:55 18.0 °C 17.4 °C 1013.1 hPa Calm     96% 0.0 mm 0 W/m2
22:00 18.0 °C 17.4 °C 1013.1 hPa Calm   2.6 km/h 96% 0.0 mm 0 W/m2
22:05 17.9 °C 17.1 °C 1013.1 hPa Calm   5.0 km/h 95% 0.0 mm 0 W/m2
22:10 17.9 °C 17.1 °C 1013.1 hPa North 1.1 km/h 5.0 km/h 95% 0.0 mm 0 W/m2
22:15 17.5 °C 16.7 °C 1013.1 hPa Calm   6.1 km/h 95% 0.0 mm 0 W/m2
22:20 17.7 °C 16.9 °C 1013.1 hPa Calm   6.1 km/h 95% 0.0 mm 0 W/m2
22:25 17.6 °C 16.8 °C 1013.1 hPa Calm   2.6 km/h 95% 0.0 mm 0 W/m2
22:30 17.4 °C 16.4 °C 1013.1 hPa Calm     94% 0.0 mm 0 W/m2
22:35 17.3 °C 16.3 °C 1013.1 hPa Calm   1.1 km/h 94% 0.0 mm 0 W/m2
22:40 17.2 °C 16.2 °C 1013.1 hPa Calm   2.6 km/h 94% 0.0 mm 0 W/m2
22:45 17.1 °C 16.1 °C 1013.1 hPa NW 1.1 km/h 5.0 km/h 94% 0.0 mm 0 W/m2
22:50 17.0 °C 16.1 °C 1013.1 hPa NNW 1.1 km/h 5.0 km/h 94% 0.0 mm 0 W/m2
22:55 16.9 °C 16.1 °C 1013.1 hPa Calm   3.5 km/h 95% 0.0 mm 0 W/m2
23:00 16.8 °C 16.0 °C 1013.1 hPa North 1.1 km/h 3.5 km/h 95% 0.0 mm 0 W/m2
23:05 16.7 °C 16.1 °C 1013.1 hPa North 1.1 km/h 3.5 km/h 96% 0.0 mm 0 W/m2
23:10 16.7 °C 16.1 °C 1013.1 hPa North 3.5 km/h 7.2 km/h 96% 0.0 mm 0 W/m2
23:15 16.8 °C 16.2 °C 1012.8 hPa North 3.5 km/h 7.2 km/h 96% 0.0 mm 0 W/m2
23:20 16.7 °C 16.2 °C 1013.1 hPa North 2.6 km/h 7.2 km/h 97% 0.0 mm 0 W/m2
23:25 16.6 °C 16.1 °C 1012.8 hPa NNW 3.5 km/h 7.2 km/h 97% 0.0 mm 0 W/m2
23:30 16.6 °C 16.1 °C 1012.8 hPa NNW 1.1 km/h 7.2 km/h 97% 0.0 mm 0 W/m2
23:35 16.5 °C 16.1 °C 1012.8 hPa NNW 3.5 km/h 7.2 km/h 97% 0.0 mm 0 W/m2
23:40 16.5 °C 16.1 °C 1012.8 hPa NNW 3.5 km/h 7.2 km/h 97% 0.0 mm 0 W/m2
23:45 16.5 °C 16.1 °C 1012.8 hPa NNW 6.1 km/h 7.2 km/h 97% 0.0 mm 0 W/m2
23:50 16.4 °C 15.9 °C 1012.8 hPa NNW 5.0 km/h 9.7 km/h 97% 0.0 mm 0 W/m2
23:55 16.5 °C 16.1 °C 1012.8 hPa NNW 6.1 km/h 9.7 km/h 97% 0.0 mm 0 W/m2
Northern Hawkes Bay. New Zealand Historic Data
Compliments of Weather Underground - 2.25 mb